Time;durP1;ratioP1;P1;durP2;ratioP2;P2;SDS_P1;SDS_P2;PMS_P1;PMS_P2;Temp;Humidity;BMP_temperature;BMP_pressure;BME280_temperature;BME280_humidity;BME280_pressure;Samples;Min_cycle;Max_cycle;Signal;HPM_P1;HPM_P2
2023/03/06 00:00:40;;;;;;;5.60;3.78;;;;;;;2.12;98.32;100883.59;4982330;28;20039;-81
2023/03/06 00:03:05;;;;;;;6.10;3.90;;;;;;;2.11;97.58;100874.88;4971346;28;20031;-82
2023/03/06 00:05:31;;;;;;;7.47;3.65;;;;;;;2.09;97.74;100871.38;4973822;28;20045;-82
2023/03/06 00:07:56;;;;;;;7.60;3.20;;;;;;;2.04;98.13;100865.22;4971926;28;20035;-81
2023/03/06 00:10:28;;;;;;;5.07;3.70;;;;;;;2.04;98.18;100866.97;4975604;28;20031;-82
2023/03/06 00:12:57;;;;;;;5.10;3.60;;;;;;;2.01;98.78;100865.19;4973960;28;20030;-82
2023/03/06 00:15:24;;;;;;;7.82;3.78;;;;;;;2.04;97.62;100869.56;4972513;28;20092;-82
2023/03/06 00:17:50;;;;;;;6.45;2.97;;;;;;;2.02;97.62;100871.28;4990460;28;20439;-81
2023/03/06 00:20:16;;;;;;;6.15;3.33;;;;;;;2.02;98.71;100869.53;4971739;28;20031;-82
2023/03/06 00:22:42;;;;;;;6.75;3.58;;;;;;;2.03;98.47;100867.78;4974036;28;20054;-82
2023/03/06 00:25:13;;;;;;;12.63;3.95;;;;;;;2.05;97.86;100860.88;4972200;28;20033;-82
2023/03/06 00:27:38;;;;;;;5.18;3.28;;;;;;;2.05;98.36;100859.16;4973107;28;20126;-82
2023/03/06 00:30:05;;;;;;;5.32;3.30;;;;;;;2.01;98.72;100844.28;4970926;28;20106;-81
2023/03/06 00:32:30;;;;;;;5.43;3.10;;;;;;;2.08;98.58;100853.97;4973739;28;20038;-82
2023/03/06 00:34:56;;;;;;;6.28;3.35;;;;;;;2.05;98.32;100850.41;4972416;28;20101;-82
2023/03/06 00:37:22;;;;;;;8.40;3.30;;;;;;;2.01;99.12;100846.03;4974668;28;20058;-82
2023/03/06 00:39:49;;;;;;;6.35;3.55;;;;;;;1.98;98.86;100838.13;4973960;28;20361;-82
2023/03/06 00:42:15;;;;;;;4.05;3.15;;;;;;;1.99;99.06;100843.38;4974930;28;20046;-81
2023/03/06 00:44:41;;;;;;;7.47;3.33;;;;;;;1.91;99.14;100830.22;4974067;28;20093;-82
2023/03/06 00:47:07;;;;;;;5.65;3.45;;;;;;;1.91;99.10;100830.22;4971204;28;20478;-82
2023/03/06 00:49:32;;;;;;;6.95;4.25;;;;;;;1.88;99.19;100832.81;4974769;28;20076;-82
2023/03/06 00:51:58;;;;;;;6.25;3.80;;;;;;;1.86;99.04;100831.03;4974551;28;20474;-82
2023/03/06 00:54:23;;;;;;;7.60;3.97;;;;;;;1.83;98.85;100829.25;4974380;28;20069;-82
2023/03/06 00:56:49;;;;;;;4.57;3.47;;;;;;;1.80;98.94;100829.19;4973375;28;20053;-80
2023/03/06 00:59:14;;;;;;;7.35;3.90;;;;;;;1.78;98.48;100827.41;4972045;28;20049;-82
2023/03/06 01:01:40;;;;;;;6.13;4.15;;;;;;;1.75;99.27;100827.38;4971152;28;20489;-81
2023/03/06 01:04:05;;;;;;;9.18;4.47;;;;;;;1.72;99.40;100823.88;4974773;28;20049;-82
2023/03/06 01:06:31;;;;;;;7.88;4.10;;;;;;;1.70;99.86;100819.47;4970978;28;20178;-81
2023/03/06 01:08:56;;;;;;;6.85;3.90;;;;;;;1.68;99.05;100819.47;4970477;28;20109;-82
2023/03/06 01:11:24;;;;;;;7.07;4.30;;;;;;;1.64;98.91;100811.59;4974429;28;20039;-82
2023/03/06 01:13:49;;;;;;;6.90;4.57;;;;;;;1.61;99.56;100816.78;4975897;28;20041;-82
2023/03/06 01:16:20;;;;;;;9.95;4.88;;;;;;;1.60;99.53;100812.38;4977362;28;20049;-81
2023/03/06 01:18:48;;;;;;;6.63;4.90;;;;;;;1.53;99.85;100806.19;4980452;28;20081;-82
2023/03/06 01:21:15;;;;;;;9.32;4.55;;;;;;;1.49;99.80;100813.09;4977713;28;20085;-82
2023/03/06 01:23:41;;;;;;;8.52;5.18;;;;;;;1.45;99.39;100810.44;4993306;28;20486;-82
2023/03/06 01:26:07;;;;;;;7.38;4.95;;;;;;;1.35;99.86;100812.03;4975426;28;20029;-81
2023/03/06 01:28:36;;;;;;;8.35;5.53;;;;;;;1.37;100.00;100807.72;5007386;28;20039;-81
2023/03/06 01:31:03;;;;;;;8.88;5.50;;;;;;;1.36;100.00;100805.06;4975765;28;20371;-81
2023/03/06 01:33:29;;;;;;;8.18;5.18;;;;;;;1.36;99.58;100805.97;4979698;28;20101;-81
2023/03/06 01:35:55;;;;;;;9.43;5.20;;;;;;;1.33;100.00;100803.28;4981987;28;20114;-82
2023/03/06 01:38:21;;;;;;;9.30;5.55;;;;;;;1.32;99.91;100808.50;4979790;28;20030;-82
2023/03/06 01:40:46;;;;;;;10.10;5.45;;;;;;;1.28;100.00;100807.56;4989989;28;20029;-82
2023/03/06 01:43:27;;;;;;;8.27;5.10;;;;;;;1.24;100.00;100804.03;4975325;28;20038;-82
2023/03/06 01:46:32;;;;;;;9.75;6.18;;;;;;;1.22;100.00;100799.66;4978634;28;20030;-82
2023/03/06 01:49:01;;;;;;;9.38;5.70;;;;;;;1.18;100.00;100793.50;5006109;28;20031;-82
2023/03/06 01:51:31;;;;;;;9.13;5.88;;;;;;;1.08;100.00;100782.03;4960213;28;20113;-82
2023/03/06 01:54:00;;;;;;;9.43;6.83;;;;;;;1.06;100.00;100791.59;4974814;28;20037;-82
2023/03/06 01:56:25;;;;;;;8.63;6.25;;;;;;;0.98;100.00;100781.88;4977742;28;20035;-82
2023/03/06 01:58:52;;;;;;;11.48;6.07;;;;;;;0.96;100.00;100788.78;4974902;28;20057;-82
2023/03/06 02:01:19;;;;;;;8.98;5.57;;;;;;;0.93;100.00;100776.59;4996667;28;20042;-82
2023/03/06 02:03:46;;;;;;;8.65;5.63;;;;;;;0.93;100.00;100779.19;4979734;28;20039;-81
2023/03/06 02:06:12;;;;;;;11.45;7.07;;;;;;;0.90;100.00;100776.53;5005687;28;20042;-81
2023/03/06 02:08:38;;;;;;;9.65;5.78;;;;;;;0.89;100.00;100764.38;5007079;28;20026;-81
2023/03/06 02:11:07;;;;;;;10.63;6.40;;;;;;;0.86;100.00;100769.50;4973919;28;20030;-81
2023/03/06 02:13:34;;;;;;;9.13;6.38;;;;;;;0.82;100.00;100767.72;4982723;28;20076;-82
2023/03/06 02:16:01;;;;;;;15.93;6.88;;;;;;;0.78;100.00;100769.38;4979744;28;20030;-81
2023/03/06 02:18:27;;;;;;;10.82;6.45;;;;;;;0.78;100.00;100773.72;4975760;28;20070;-82
2023/03/06 02:20:59;;;;;;;11.35;6.55;;;;;;;0.75;100.00;100764.13;4975076;28;20482;-82
2023/03/06 02:23:43;;;;;;;9.75;6.50;;;;;;;0.76;100.00;100755.44;4973365;28;20034;-82
2023/03/06 02:26:11;;;;;;;9.90;5.60;;;;;;;0.76;100.00;100760.66;5006893;28;20417;-82
2023/03/06 02:28:38;;;;;;;9.48;6.07;;;;;;;0.70;100.00;100749.28;4975334;28;20041;-82
2023/03/06 02:31:05;;;;;;;10.48;6.22;;;;;;;0.64;100.00;100750.94;4973999;28;20036;-82
2023/03/06 02:33:31;;;;;;;14.80;7.18;;;;;;;0.56;100.00;100739.47;4972686;28;20122;-82
2023/03/06 02:36:04;;;;;;;10.05;6.63;;;;;;;0.56;100.00;100743.81;4983163;28;20034;-82
2023/03/06 02:38:39;;;;;;;10.40;6.60;;;;;;;0.53;100.00;100738.56;5004958;28;20085;-82
2023/03/06 02:41:07;;;;;;;9.40;6.40;;;;;;;0.52;100.00;100745.50;4974175;28;20097;-82
2023/03/06 02:43:36;;;;;;;11.10;7.30;;;;;;;0.51;100.00;100746.34;4979361;28;20486;-82
2023/03/06 02:46:02;;;;;;;10.60;7.68;;;;;;;0.49;100.00;100745.44;4974868;28;20030;-82
2023/03/06 02:48:28;;;;;;;10.98;6.22;;;;;;;0.52;100.00;100742.00;4976477;28;20030;-82
2023/03/06 02:50:53;;;;;;;10.88;7.15;;;;;;;0.52;100.00;100752.41;4981758;28;20073;-82
2023/03/06 02:53:19;;;;;;;9.13;6.65;;;;;;;0.48;100.00;100741.06;4978789;28;20430;-82
2023/03/06 02:55:45;;;;;;;11.02;7.32;;;;;;;0.50;100.00;100746.34;4960342;28;20035;-82
2023/03/06 02:58:14;;;;;;;12.50;7.95;;;;;;;0.44;100.00;100749.69;4977098;28;20110;-81
2023/03/06 03:00:40;;;;;;;12.55;7.95;;;;;;;0.44;100.00;100747.06;5009037;28;20070;-82
2023/03/06 03:03:07;;;;;;;13.05;7.82;;;;;;;0.43;100.00;100742.72;4992265;28;20023;-82
2023/03/06 03:05:33;;;;;;;10.20;7.50;;;;;;;0.42;100.00;100738.34;4977460;28;20051;-81
2023/03/06 03:08:07;;;;;;;9.88;6.85;;;;;;;0.39;100.00;100733.97;4977222;28;20023;-80
2023/03/06 03:10:33;;;;;;;9.57;6.50;;;;;;;0.38;100.00;100732.22;4994990;28;20625;-80
2023/03/06 03:12:58;;;;;;;10.95;7.40;;;;;;;0.35;100.00;100718.28;4977262;28;20061;-80
2023/03/06 03:15:24;;;;;;;12.50;7.70;;;;;;;0.33;100.00;100717.38;4958389;28;20035;-81
2023/03/06 03:17:50;;;;;;;11.20;7.75;;;;;;;0.31;100.00;100716.47;4973876;28;20453;-81
2023/03/06 03:20:18;;;;;;;8.75;6.45;;;;;;;0.34;100.00;100716.50;4974765;28;20046;-81
2023/03/06 03:22:52;;;;;;;11.27;7.30;;;;;;;0.29;100.00;100711.22;4974985;28;20073;-81
2023/03/06 03:25:18;;;;;;;8.98;6.35;;;;;;;0.29;100.00;100713.81;5005273;28;20027;-81
2023/03/06 03:27:44;;;;;;;12.80;7.32;;;;;;;0.29;100.00;100712.94;4975873;28;20031;-81
2023/03/06 03:30:12;;;;;;;10.23;7.43;;;;;;;0.30;100.00;100704.31;4971611;28;20030;-81
2023/03/06 03:32:37;;;;;;;12.77;7.43;;;;;;;0.30;100.00;100699.09;4976682;28;20031;-80
2023/03/06 03:35:05;;;;;;;10.60;7.22;;;;;;;0.32;100.00;100692.16;4989955;28;20034;-81
2023/03/06 03:37:31;;;;;;;11.55;7.60;;;;;;;0.30;100.00;100686.06;4977005;28;20041;-81
2023/03/06 03:39:58;;;;;;;11.30;7.30;;;;;;;0.25;100.00;100677.25;4974588;28;20027;-81
2023/03/06 03:42:24;;;;;;;11.25;7.15;;;;;;;0.25;100.00;100678.16;4994728;28;20346;-81
2023/03/06 03:44:49;;;;;;;13.18;7.80;;;;;;;0.23;100.00;100681.59;4977742;28;20050;-81
2023/03/06 03:47:16;;;;;;;12.13;7.72;;;;;;;0.18;100.00;100671.09;4976074;28;20545;-81
2023/03/06 03:49:42;;;;;;;10.90;7.38;;;;;;;0.20;100.00;100672.00;4971364;28;20129;-74
2023/03/06 03:52:07;;;;;;;15.18;8.02;;;;;;;0.16;100.00;100664.97;4971289;28;20070;-74
2023/03/06 03:54:34;;;;;;;12.73;8.10;;;;;;;0.14;100.00;100671.88;4956440;28;20133;-74
2023/03/06 03:57:00;;;;;;;15.70;7.47;;;;;;;0.12;100.00;100668.38;4971097;28;20076;-74
2023/03/06 03:59:31;;;;;;;13.15;7.43;;;;;;;0.10;100.00;100659.66;4961640;28;20387;-74
2023/03/06 04:02:13;;;;;;;12.48;7.90;;;;;;;0.08;100.00;100667.44;5005839;28;20138;-74
2023/03/06 04:04:47;;;;;;;10.40;6.60;;;;;;;0.12;100.00;100673.56;4959730;28;20057;-74
2023/03/06 04:07:16;;;;;;;10.40;6.53;;;;;;;0.10;100.00;100657.03;4972568;28;20486;-73
2023/03/06 04:09:42;;;;;;;11.68;7.63;;;;;;;0.13;100.00;100675.34;4956525;28;20505;-73
2023/03/06 04:12:08;;;;;;;9.55;6.53;;;;;;;0.09;100.00;100660.50;4974762;28;20209;-73
2023/03/06 04:14:35;;;;;;;12.85;7.45;;;;;;;0.08;100.00;100656.16;4971555;28;21247;-73
2023/03/06 04:17:01;;;;;;;12.88;7.65;;;;;;;0.11;100.00;100656.22;4976205;28;20174;-81
2023/03/06 04:19:27;;;;;;;11.60;7.22;;;;;;;0.10;100.00;100655.34;4973649;28;20651;-80
2023/03/06 04:21:52;;;;;;;11.70;7.20;;;;;;;0.14;100.00;100661.47;4975118;28;20030;-80
2023/03/06 04:24:18;;;;;;;12.40;7.57;;;;;;;0.15;100.00;100655.44;4976104;28;20042;-81
2023/03/06 04:26:44;;;;;;;13.98;7.75;;;;;;;0.17;100.00;100652.00;4976875;28;20041;-81
2023/03/06 04:29:10;;;;;;;14.15;8.45;;;;;;;0.19;100.00;100654.59;4974011;28;20043;-81
2023/03/06 04:31:35;;;;;;;10.82;7.18;;;;;;;0.19;100.00;100646.78;4979303;28;20556;-81
2023/03/06 04:34:01;;;;;;;13.40;8.00;;;;;;;0.20;100.00;100643.34;4980105;28;20038;-81
2023/03/06 04:36:30;;;;;;;12.75;8.13;;;;;;;0.23;100.00;100648.63;4975819;28;20070;-81
2023/03/06 04:38:59;;;;;;;15.05;8.85;;;;;;;0.24;100.00;100649.47;4972380;28;20037;-81
2023/03/06 04:41:25;;;;;;;18.10;9.18;;;;;;;0.20;100.00;100644.22;4978050;28;20034;-81
2023/03/06 04:43:51;;;;;;;15.18;8.07;;;;;;;0.23;100.00;100640.81;4977255;28;20423;-81
2023/03/06 04:46:16;;;;;;;17.98;9.43;;;;;;;0.20;100.00;100652.03;4977329;28;20063;-81
2023/03/06 04:48:42;;;;;;;15.10;10.48;;;;;;;0.24;100.00;100641.66;4971607;28;20027;-81
2023/03/06 04:51:11;;;;;;;14.77;9.05;;;;;;;0.23;100.00;100633.00;4980445;28;20531;-80
2023/03/06 04:53:36;;;;;;;16.75;9.43;;;;;;;0.27;100.00;100632.16;4994885;28;20031;-81
2023/03/06 04:56:02;;;;;;;13.93;9.75;;;;;;;0.28;100.00;100627.84;4976732;28;20035;-80
2023/03/06 04:58:27;;;;;;;13.18;8.73;;;;;;;0.29;100.00;100627.88;4977837;28;20022;-80
2023/03/06 05:00:53;;;;;;;19.60;10.10;;;;;;;0.26;100.00;100626.94;4975164;28;20058;-80
2023/03/06 05:03:18;;;;;;;20.75;11.10;;;;;;;0.28;100.00;100625.25;4978036;28;20125;-80
2023/03/06 05:05:44;;;;;;;19.90;11.30;;;;;;;0.30;100.00;100623.56;4980947;28;20052;-81
2023/03/06 05:08:14;;;;;;;17.58;10.98;;;;;;;0.29;100.00;100625.25;4999219;28;20019;-81
2023/03/06 05:10:40;;;;;;;18.08;9.98;;;;;;;0.31;100.00;100628.78;4978179;28;20486;-81
2023/03/06 05:13:05;;;;;;;17.85;9.60;;;;;;;0.30;100.00;100627.03;4980999;28;20019;-81
2023/03/06 05:15:31;;;;;;;17.80;10.88;;;;;;;0.33;100.00;100623.59;4964095;28;20113;-81
2023/03/06 05:17:56;;;;;;;16.58;10.20;;;;;;;0.35;100.00;100619.28;4977087;28;20026;-81
2023/03/06 05:20:22;;;;;;;17.52;10.32;;;;;;;0.38;100.00;100614.13;4977482;28;20494;-81
2023/03/06 05:22:47;;;;;;;18.27;11.43;;;;;;;0.39;100.00;100614.13;4975746;28;20435;-79
2023/03/06 05:25:12;;;;;;;23.73;11.77;;;;;;;0.40;100.00;100612.44;4977394;28;20034;-81
2023/03/06 05:27:38;;;;;;;17.67;11.00;;;;;;;0.41;100.00;100611.56;5009192;28;20026;-82
2023/03/06 05:30:05;;;;;;;20.10;12.82;;;;;;;0.38;100.00;100609.78;4977723;28;20061;-81
2023/03/06 05:32:31;;;;;;;19.85;12.38;;;;;;;0.42;100.00;100605.47;4985185;28;20089;-81
2023/03/06 05:34:56;;;;;;;20.58;12.80;;;;;;;0.43;100.00;100605.53;4980760;28;20034;-81
2023/03/06 05:37:22;;;;;;;24.58;12.48;;;;;;;0.45;100.00;100604.69;4975751;28;20371;-81
2023/03/06 05:39:48;;;;;;;23.98;13.90;;;;;;;0.45;100.00;100604.69;4975036;28;20081;-81
2023/03/06 05:42:14;;;;;;;22.75;13.32;;;;;;;0.47;100.00;100606.47;4979610;28;20052;-81
2023/03/06 05:44:40;;;;;;;23.67;13.70;;;;;;;0.48;100.00;100603.00;4983230;28;20125;-81
2023/03/06 05:47:07;;;;;;;24.85;13.90;;;;;;;0.48;100.00;100599.53;4977294;28;20508;-81
2023/03/06 05:49:34;;;;;;;26.73;13.63;;;;;;;0.49;100.00;100604.72;4977461;28;20540;-81
2023/03/06 05:52:02;;;;;;;31.02;15.02;;;;;;;0.47;100.00;100590.84;4975957;28;20037;-81
2023/03/06 05:54:29;;;;;;;25.73;13.90;;;;;;;0.53;100.00;100601.34;4974788;28;20425;-81
2023/03/06 05:56:56;;;;;;;27.48;15.10;;;;;;;0.48;100.00;100589.97;4974700;28;20023;-81
2023/03/06 05:59:26;;;;;;;28.90;15.48;;;;;;;0.55;100.00;100598.75;4976021;28;20601;-81
2023/03/06 06:01:55;;;;;;;22.80;13.13;;;;;;;0.51;100.00;100586.53;4981400;28;20059;-81
2023/03/06 06:04:22;;;;;;;25.02;15.25;;;;;;;0.54;100.00;100590.03;4962674;28;20410;-81
2023/03/06 06:06:56;;;;;;;24.45;14.75;;;;;;;0.52;100.00;100591.78;4976012;28;20466;-81
2023/03/06 06:09:21;;;;;;;24.67;14.73;;;;;;;0.55;100.00;100598.75;4977489;28;20466;-81
2023/03/06 06:11:53;;;;;;;24.35;14.57;;;;;;;0.52;100.00;100597.00;5008136;28;20065;-81
2023/03/06 06:14:19;;;;;;;25.17;14.82;;;;;;;0.55;100.00;100593.56;4973241;28;20030;-81
2023/03/06 06:16:44;;;;;;;22.05;13.65;;;;;;;0.53;100.00;100598.72;4990699;28;20421;-81
2023/03/06 06:19:17;;;;;;;29.48;14.75;;;;;;;0.52;100.00;100585.66;4963311;28;20041;-81
2023/03/06 06:21:44;;;;;;;29.10;16.35;;;;;;;0.55;100.00;100593.56;4979286;28;20049;-81
2023/03/06 06:24:10;;;;;;;28.55;16.73;;;;;;;0.58;100.00;100597.06;4976143;28;20034;-81
2023/03/06 06:26:35;;;;;;;26.30;16.42;;;;;;;0.60;100.00;100594.50;4977995;28;20039;-81
2023/03/06 06:29:03;;;;;;;24.23;14.95;;;;;;;0.63;100.00;100592.78;4976912;28;20050;-81
2023/03/06 06:31:29;;;;;;;31.63;17.48;;;;;;;0.63;100.00;100592.78;4974995;28;20030;-81
2023/03/06 06:33:54;;;;;;;28.98;16.67;;;;;;;0.66;100.00;100593.69;4957162;28;20501;-81
2023/03/06 06:36:20;;;;;;;26.95;15.77;;;;;;;0.67;100.00;100595.44;4975625;28;20041;-81
2023/03/06 06:38:46;;;;;;;29.75;18.23;;;;;;;0.70;100.00;100593.75;4972550;28;20042;-82
2023/03/06 06:41:12;;;;;;;32.08;16.20;;;;;;;0.72;100.00;100596.38;4979931;28;20022;-81
2023/03/06 06:43:38;;;;;;;30.30;16.98;;;;;;;0.73;100.00;100590.31;4976594;28;20453;-81
2023/03/06 06:46:03;;;;;;;28.45;15.85;;;;;;;0.73;100.00;100590.31;4974031;28;20027;-81
2023/03/06 06:48:29;;;;;;;28.33;16.90;;;;;;;0.75;100.00;100593.84;4975079;28;20035;-81
2023/03/06 06:50:58;;;;;;;34.13;17.63;;;;;;;0.74;100.00;100592.06;4973024;28;20437;-82
2023/03/06 06:53:24;;;;;;;25.63;15.65;;;;;;;0.77;100.00;100593.00;4973941;28;20439;-82
2023/03/06 06:55:50;;;;;;;30.60;17.73;;;;;;;0.77;100.00;100599.94;4975004;28;20030;-82
2023/03/06 06:58:16;;;;;;;28.70;17.45;;;;;;;0.77;100.00;100592.13;4976220;28;20047;-81
2023/03/06 07:00:41;;;;;;;27.27;15.55;;;;;;;0.85;100.00;100595.72;4977483;28;20083;-82
2023/03/06 07:03:09;;;;;;;25.13;15.05;;;;;;;0.89;100.00;100600.13;4976999;28;20065;-81
2023/03/06 07:05:34;;;;;;;27.02;16.33;;;;;;;0.93;100.00;100603.63;4962032;28;20023;-81
2023/03/06 07:08:00;;;;;;;34.40;17.17;;;;;;;0.97;100.00;100605.44;4974921;28;20692;-81
2023/03/06 07:10:25;;;;;;;30.33;16.98;;;;;;;0.99;100.00;100593.28;4982173;28;20071;-82
2023/03/06 07:12:51;;;;;;;32.25;17.60;;;;;;;1.02;100.00;100601.16;4984815;28;20481;-81
2023/03/06 07:15:17;;;;;;;28.60;17.55;;;;;;;1.04;100.00;100602.06;4978352;28;20018;-80
2023/03/06 07:17:43;;;;;;;35.90;16.75;;;;;;;1.06;100.00;100596.00;4976993;28;20034;-80
2023/03/06 07:20:09;;;;;;;30.23;16.83;;;;;;;1.12;100.00;100597.81;4977766;28;20034;-80
2023/03/06 07:22:35;;;;;;;32.35;16.20;;;;;;;1.16;100.00;100601.31;4981006;28;20042;-79
2023/03/06 07:25:02;;;;;;;24.40;15.25;;;;;;;1.21;100.00;100599.63;4975913;28;20034;-80
2023/03/06 07:27:28;;;;;;;26.80;16.20;;;;;;;1.23;100.00;100608.38;5011747;28;20031;-80
2023/03/06 07:29:53;;;;;;;29.15;18.30;;;;;;;1.24;100.00;100604.91;4976563;28;20322;-80
2023/03/06 07:32:19;;;;;;;29.58;16.92;;;;;;;1.21;100.00;100600.53;4975420;28;20455;-80
2023/03/06 07:34:45;;;;;;;24.98;15.55;;;;;;;1.24;100.00;100607.53;4993117;28;20371;-80
2023/03/06 07:37:11;;;;;;;27.23;16.30;;;;;;;1.27;100.00;100604.94;4979933;28;20123;-80
2023/03/06 07:39:37;;;;;;;30.15;16.63;;;;;;;1.33;100.00;100606.75;4979075;28;20122;-81
2023/03/06 07:42:02;;;;;;;34.00;18.52;;;;;;;1.34;100.00;100618.94;4984760;28;20037;-80
2023/03/06 07:44:28;;;;;;;30.55;18.58;;;;;;;1.37;100.00;100613.75;4972030;28;20073;-80
2023/03/06 07:46:54;;;;;;;26.88;15.68;;;;;;;1.43;100.00;100616.44;4983562;28;20505;-79
2023/03/06 07:49:19;;;;;;;29.80;16.38;;;;;;;1.46;100.00;100612.13;4992743;28;20386;-80
2023/03/06 07:51:45;;;;;;;30.83;17.80;;;;;;;1.52;100.00;100613.06;5024225;28;20045;-80
2023/03/06 07:54:10;;;;;;;31.60;16.77;;;;;;;1.53;100.00;100606.97;4991329;28;20026;-80
2023/03/06 07:56:36;;;;;;;27.73;16.77;;;;;;;1.59;100.00;100605.31;4992662;28;20397;-80
2023/03/06 07:59:02;;;;;;;35.83;20.80;;;;;;;1.60;100.00;100599.22;4992435;28;20047;-79
2023/03/06 08:01:27;;;;;;;29.88;17.55;;;;;;;1.63;100.00;100607.13;4992374;28;20054;-79
2023/03/06 08:03:53;;;;;;;33.47;20.00;;;;;;;1.70;100.00;100600.19;4992549;28;20115;-80
2023/03/06 08:06:22;;;;;;;23.92;15.18;;;;;;;1.74;100.00;100604.59;4991231;28;20050;-80
2023/03/06 08:08:50;;;;;;;29.77;17.98;;;;;;;1.79;100.00;100602.03;4992434;28;20498;-79
2023/03/06 08:11:17;;;;;;;36.63;20.27;;;;;;;1.88;100.00;100612.56;4989338;28;20038;-80
2023/03/06 08:13:43;;;;;;;32.50;18.42;;;;;;;1.93;100.00;100601.31;5003965;28;20023;-80
2023/03/06 08:16:10;;;;;;;31.15;18.77;;;;;;;1.99;100.00;100605.72;4982975;28;20101;-80
2023/03/06 08:18:38;;;;;;;32.25;19.85;;;;;;;2.06;100.00;100606.66;4973366;28;20542;-80
2023/03/06 08:21:16;;;;;;;29.42;18.60;;;;;;;2.08;100.00;100612.78;5018301;28;20073;-80
2023/03/06 08:23:43;;;;;;;36.97;19.00;;;;;;;2.08;100.00;100611.03;4993398;28;20049;-80
2023/03/06 08:26:18;;;;;;;35.25;18.95;;;;;;;2.09;100.00;100617.13;4995202;28;20018;-80
2023/03/06 08:28:43;;;;;;;32.97;20.33;;;;;;;2.13;100.00;100611.94;5028257;28;20031;-80
2023/03/06 08:31:10;;;;;;;36.22;19.80;;;;;;;2.15;100.00;100614.56;4995214;28;20508;-80
2023/03/06 08:33:37;;;;;;;31.42;18.13;;;;;;;2.19;100.00;100611.13;5028196;28;20034;-80
2023/03/06 08:36:02;;;;;;;32.05;18.27;;;;;;;2.23;100.00;100612.91;4996378;28;20026;-80
2023/03/06 08:38:28;;;;;;;29.15;19.48;;;;;;;2.28;100.00;100611.19;5023766;28;20057;-80
2023/03/06 08:40:53;;;;;;;31.98;19.50;;;;;;;2.32;100.00;100606.84;4979221;28;20498;-80
2023/03/06 08:43:19;;;;;;;31.20;19.23;;;;;;;2.45;100.00;100610.44;4980679;28;20097;-80
2023/03/06 08:45:44;;;;;;;29.73;18.85;;;;;;;2.56;100.00;100611.41;5007951;28;20031;-80
2023/03/06 08:48:10;;;;;;;31.38;18.67;;;;;;;2.70;100.00;100611.50;4979633;28;20043;-80
2023/03/06 08:50:35;;;;;;;26.85;16.90;;;;;;;2.84;100.00;100609.84;4991342;28;20143;-80
2023/03/06 08:53:01;;;;;;;23.77;14.50;;;;;;;2.91;100.00;100610.75;4977340;28;20122;-79
2023/03/06 08:55:27;;;;;;;23.98;14.73;;;;;;;2.92;100.00;100607.28;4995286;28;20189;-81
2023/03/06 08:57:52;;;;;;;25.48;15.30;;;;;;;2.96;100.00;100614.25;4982841;28;20039;-80
2023/03/06 09:00:18;;;;;;;23.45;14.00;;;;;;;2.97;100.00;100610.81;4990396;28;20217;-81
2023/03/06 09:02:44;;;;;;;22.73;14.23;;;;;;;3.04;100.00;100619.53;4995483;28;20069;-80
2023/03/06 09:05:10;;;;;;;19.83;12.65;;;;;;;3.03;100.00;100613.44;4995503;28;20401;-81
2023/03/06 09:07:35;;;;;;;18.05;11.95;;;;;;;3.07;100.00;100614.34;4988021;28;20121;-81
2023/03/06 09:10:01;;;;;;;17.17;10.23;;;;;;;3.10;100.00;100614.34;4978804;28;20430;-81
2023/03/06 09:12:26;;;;;;;17.27;10.55;;;;;;;3.16;100.00;100616.97;4976734;28;20041;-81
2023/03/06 09:14:52;;;;;;;15.95;10.10;;;;;;;3.19;100.00;100614.38;4984660;28;20054;-81
2023/03/06 09:17:18;;;;;;;15.77;10.85;;;;;;;3.18;99.26;100615.25;4994983;28;20252;-81
2023/03/06 09:19:43;;;;;;;14.95;9.48;;;;;;;3.19;99.65;100615.28;4995144;28;20022;-81
2023/03/06 09:22:09;;;;;;;13.13;8.95;;;;;;;3.20;99.75;100618.75;4995116;28;20073;-81
2023/03/06 09:24:34;;;;;;;14.07;9.15;;;;;;;3.20;99.64;100621.38;4995154;28;20470;-81
2023/03/06 09:27:03;;;;;;;14.25;9.10;;;;;;;3.25;99.35;100621.41;4990349;28;20049;-81
2023/03/06 09:29:28;;;;;;;14.20;8.85;;;;;;;3.30;99.36;100617.06;4983448;28;20113;-81
2023/03/06 09:31:54;;;;;;;13.57;9.23;;;;;;;3.34;99.40;100619.69;5022222;28;20589;-81
2023/03/06 09:34:19;;;;;;;12.80;8.38;;;;;;;3.38;99.27;100613.59;4987917;28;20117;-82
2023/03/06 09:36:45;;;;;;;12.23;7.90;;;;;;;3.43;97.78;100624.06;4987472;28;20468;-81
2023/03/06 09:39:11;;;;;;;12.68;7.65;;;;;;;3.46;97.29;100613.63;4988788;28;20073;-81
2023/03/06 09:41:39;;;;;;;12.27;7.72;;;;;;;3.54;96.95;100618.91;4982048;28;20050;-80
2023/03/06 09:44:16;;;;;;;10.73;7.28;;;;;;;3.57;96.05;100618.91;4991042;28;20026;-81
2023/03/06 09:47:21;;;;;;;9.40;6.65;;;;;;;3.61;95.21;100618.03;4988766;28;20080;-81
2023/03/06 09:50:20;;;;;;;7.97;6.43;;;;;;;3.61;94.06;100613.69;5004203;28;20030;-81
2023/03/06 09:53:04;;;;;;;9.82;6.18;;;;;;;3.67;94.64;100612.81;4992798;28;20030;-81
2023/03/06 09:55:34;;;;;;;10.77;6.30;;;;;;;3.71;95.13;100611.06;4985330;28;20113;-81
2023/03/06 09:58:05;;;;;;;8.15;6.10;;;;;;;3.76;95.51;100606.72;4990743;28;20038;-81
2023/03/06 10:00:59;;;;;;;8.40;5.97;;;;;;;3.83;94.68;100606.75;4987408;28;20069;-81
2023/03/06 10:03:31;;;;;;;9.70;6.22;;;;;;;3.83;91.93;100614.63;5011973;28;20054;-81
2023/03/06 10:06:03;;;;;;;11.68;5.60;;;;;;;3.84;92.57;100600.63;4989681;28;20034;-81
2023/03/06 10:08:50;;;;;;;9.27;6.70;;;;;;;3.88;92.40;100606.75;4974609;28;20406;-81
2023/03/06 10:11:26;;;;;;;14.05;8.65;;;;;;;3.90;92.46;100607.63;4977315;28;20026;-81
2023/03/06 10:14:18;;;;;;;13.13;8.73;;;;;;;3.94;94.03;100609.38;4978667;28;20034;-80
2023/03/06 10:16:44;;;;;;;13.93;8.93;;;;;;;4.02;93.50;100606.78;4969058;28;20086;-80
2023/03/06 10:19:17;;;;;;;13.10;8.43;;;;;;;4.05;93.51;100606.75;4984679;28;20042;-80
2023/03/06 10:22:16;;;;;;;16.27;10.00;;;;;;;4.07;94.53;100600.66;4995518;28;20038;-80
2023/03/06 10:24:52;;;;;;;15.57;9.68;;;;;;;4.19;94.55;100597.19;4988095;28;20038;-80
2023/03/06 10:27:47;;;;;;;21.45;11.50;;;;;;;4.27;93.48;100589.31;4977564;28;20038;-80
2023/03/06 10:30:12;;;;;;;18.73;10.38;;;;;;;4.36;93.82;100581.44;4990862;28;20304;-80
2023/03/06 10:32:57;;;;;;;18.85;10.70;;;;;;;4.45;93.29;100586.69;4986992;28;20113;-80
2023/03/06 10:35:30;;;;;;;27.52;12.25;;;;;;;4.52;92.80;100588.44;4988181;28;20058;-80
2023/03/06 10:38:11;;;;;;;14.98;10.60;;;;;;;4.56;93.30;100591.06;4978927;28;20480;-79
2023/03/06 10:40:46;;;;;;;18.05;11.05;;;;;;;4.62;91.19;100593.66;4984831;28;20049;-80
2023/03/06 10:43:11;;;;;;;16.92;10.68;;;;;;;4.70;90.21;100590.16;4984102;28;20042;-80
2023/03/06 10:45:55;;;;;;;19.92;9.02;;;;;;;4.80;90.93;100591.00;4970855;28;20042;-80
2023/03/06 10:48:27;;;;;;;15.15;10.20;;;;;;;4.90;89.80;100594.50;4993129;28;20038;-80
2023/03/06 10:51:09;;;;;;;16.23;10.38;;;;;;;4.97;89.47;100593.59;4985589;28;20407;-80
2023/03/06 10:53:35;;;;;;;14.77;9.25;;;;;;;4.85;87.49;100597.13;4980200;28;20667;-80
2023/03/06 10:56:01;;;;;;;17.73;9.90;;;;;;;4.79;88.91;100591.88;4976287;28;20125;-79
2023/03/06 10:58:31;;;;;;;15.25;9.43;;;;;;;4.70;87.49;100595.41;4990056;28;20117;-80
2023/03/06 11:01:20;;;;;;;19.30;10.57;;;;;;;4.67;87.38;100592.78;4991495;28;20061;-80
2023/03/06 11:03:46;;;;;;;14.85;9.20;;;;;;;4.66;87.63;100592.78;4995206;28;20137;-80
2023/03/06 11:06:12;;;;;;;12.07;8.13;;;;;;;4.71;86.79;100599.75;4995634;28;20130;-79
2023/03/06 11:08:40;;;;;;;13.10;8.52;;;;;;;4.73;87.00;100591.91;4985198;28;20038;-79
2023/03/06 11:11:06;;;;;;;14.75;9.48;;;;;;;4.79;86.26;100602.34;4988365;28;20053;-79
2023/03/06 11:13:37;;;;;;;21.30;9.40;;;;;;;4.78;84.93;100603.25;4987449;28;20457;-79
2023/03/06 11:16:19;;;;;;;13.73;9.57;;;;;;;4.82;85.31;100588.38;4988783;28;20146;-79
2023/03/06 11:18:57;;;;;;;17.33;8.93;;;;;;;4.83;84.28;100584.88;4987952;28;20101;-79
2023/03/06 11:21:32;;;;;;;15.32;9.50;;;;;;;4.86;85.55;100583.09;4973912;28;20034;-79
2023/03/06 11:24:13;;;;;;;16.17;9.13;;;;;;;4.91;85.04;100581.34;4990146;28;20037;-80